Time;durP1;ratioP1;P1;durP2;ratioP2;P2;SDS_P1;SDS_P2;PMS_P1;PMS_P2;Temp;Humidity;BMP_temperature;BMP_pressure;BME280_temperature;BME280_humidity;BME280_pressure;Samples;Min_cycle;Max_cycle;Signal;HPM_P1;HPM_P2
2023/03/11 00:00:35;;;;;;;6.60;4.87;;;;;;;10.09;100.00;92882.06;6213470;23;20528;-84
2023/03/11 00:03:04;;;;;;;5.03;3.70;;;;;;;10.07;100.00;92871.16;6212686;23;20622;-84
2023/03/11 00:05:34;;;;;;;5.73;3.37;;;;;;;10.14;100.00;92910.66;6211323;23;20672;-84
2023/03/11 00:08:03;;;;;;;4.13;2.53;;;;;;;9.98;100.00;92875.31;6213788;23;20782;-85
2023/03/11 00:10:32;;;;;;;5.37;2.43;;;;;;;9.92;100.00;92889.31;6212784;23;20500;-82
2023/03/11 00:13:01;;;;;;;4.20;2.17;;;;;;;9.88;100.00;92885.66;6212018;23;20886;-82
2023/03/11 00:15:28;;;;;;;2.50;1.50;;;;;;;9.88;100.00;92879.69;6213597;23;20942;-84
2023/03/11 00:17:55;;;;;;;2.07;1.60;;;;;;;9.78;100.00;92877.88;6213272;23;20170;-81
2023/03/11 00:20:25;;;;;;;1.77;1.40;;;;;;;9.72;100.00;92870.34;6212428;23;20505;-80
2023/03/11 00:22:52;;;;;;;2.90;1.53;;;;;;;9.77;100.00;92876.31;6213713;23;20225;-84
2023/03/11 00:25:19;;;;;;;1.77;1.30;;;;;;;9.74;100.00;92871.63;6213355;23;20190;-83
2023/03/11 00:27:46;;;;;;;2.63;1.60;;;;;;;9.69;100.00;92869.03;6212815;23;20522;-84
2023/03/11 00:30:21;;;;;;;1.50;1.37;;;;;;;9.69;100.00;92861.25;6213328;23;20178;-85
2023/03/11 00:32:48;;;;;;;3.83;1.60;;;;;;;9.76;100.00;92859.19;6213913;23;20166;-85
2023/03/11 00:35:18;;;;;;;1.90;1.50;;;;;;;9.73;100.00;92831.16;6214686;23;20170;-85
2023/03/11 00:37:47;;;;;;;3.80;1.80;;;;;;;9.87;100.00;92842.59;6214186;23;20166;-85
2023/03/11 00:40:15;;;;;;;2.33;1.57;;;;;;;9.95;100.00;92847.28;6219766;23;20170;-87
2023/03/11 00:42:42;;;;;;;3.43;1.50;;;;;;;9.99;100.00;92840.53;6215535;23;20174;-85
2023/03/11 00:45:10;;;;;;;1.47;1.37;;;;;;;9.94;100.00;92852.72;6213095;23;20190;-84
2023/03/11 00:47:38;;;;;;;3.77;1.90;;;;;;;9.92;100.00;92850.41;6213107;23;20641;-84
2023/03/11 00:50:06;;;;;;;4.43;2.10;;;;;;;9.98;100.00;92841.59;6213441;23;20185;-85
2023/03/11 00:52:33;;;;;;;2.13;1.60;;;;;;;9.95;100.00;92828.34;6214994;23;20166;-86
2023/03/11 00:55:00;;;;;;;2.07;1.40;;;;;;;9.96;100.00;92816.91;6213675;23;20197;-82
2023/03/11 00:57:28;;;;;;;4.40;1.50;;;;;;;9.90;100.00;92805.00;6212269;23;20229;-87
2023/03/11 00:59:55;;;;;;;1.53;1.40;;;;;;;9.86;100.00;92804.72;6213298;23;20162;-87
2023/03/11 01:02:22;;;;;;;1.93;1.70;;;;;;;9.82;100.00;92800.31;6213371;23;20163;-86
2023/03/11 01:04:53;;;;;;;2.63;1.87;;;;;;;9.64;100.00;92799.75;6212755;23;20159;-80
2023/03/11 01:07:20;;;;;;;2.37;1.90;;;;;;;9.66;100.00;92802.91;6211579;23;20163;-80
2023/03/11 01:09:47;;;;;;;4.80;2.33;;;;;;;9.76;100.00;92811.69;6212039;23;20174;-80
2023/03/11 01:12:14;;;;;;;3.93;2.50;;;;;;;9.85;100.00;92805.75;6212413;23;20170;-80
2023/03/11 01:14:40;;;;;;;3.30;2.20;;;;;;;9.89;100.00;92786.06;6212216;23;20170;-81
2023/03/11 01:17:07;;;;;;;3.83;2.10;;;;;;;10.00;100.00;92805.00;6211904;23;20174;-80
2023/03/11 01:19:34;;;;;;;2.47;2.10;;;;;;;10.05;100.00;92776.44;6212111;23;20651;-80
2023/03/11 01:22:02;;;;;;;3.03;2.17;;;;;;;10.19;100.00;92777.50;6212325;23;20166;-80
2023/03/11 01:24:29;;;;;;;2.27;1.80;;;;;;;10.16;100.00;92765.81;6211315;23;20673;-80
2023/03/11 01:26:56;;;;;;;2.70;1.97;;;;;;;10.17;100.00;92753.63;6211229;23;20215;-79
2023/03/11 01:29:22;;;;;;;2.90;1.87;;;;;;;10.09;100.00;92730.78;6211498;23;20166;-80
2023/03/11 01:31:49;;;;;;;2.70;1.70;;;;;;;10.16;100.00;92734.66;6211709;23;20181;-80
2023/03/11 01:34:16;;;;;;;2.77;1.90;;;;;;;10.18;100.00;92737.81;6212037;23;20172;-80
2023/03/11 01:36:43;;;;;;;3.87;1.77;;;;;;;10.19;100.00;92728.16;6211436;23;20170;-81
2023/03/11 01:39:11;;;;;;;2.27;1.80;;;;;;;10.22;100.00;92735.44;6210808;23;20629;-85
2023/03/11 01:41:38;;;;;;;2.10;1.90;;;;;;;10.23;100.00;92731.81;6211099;23;20565;-85
2023/03/11 01:44:05;;;;;;;3.10;2.17;;;;;;;10.21;100.00;92739.09;6211282;23;20656;-85
2023/03/11 01:46:37;;;;;;;7.53;2.50;;;;;;;10.16;100.00;92729.47;6211242;23;20197;-85
2023/03/11 01:49:05;;;;;;;3.47;2.17;;;;;;;10.02;100.00;92741.41;6211891;23;20637;-84
2023/03/11 01:51:35;;;;;;;3.40;2.40;;;;;;;9.89;100.00;92723.78;6212749;23;20177;-85
2023/03/11 01:54:07;;;;;;;2.27;1.80;;;;;;;9.87;100.00;92759.56;6212384;23;20163;-84
2023/03/11 01:56:35;;;;;;;2.47;1.93;;;;;;;9.91;100.00;92772.81;6214040;23;20221;-82
2023/03/11 01:59:03;;;;;;;2.43;1.97;;;;;;;9.98;100.00;92775.94;6214624;23;20256;-83
2023/03/11 02:01:30;;;;;;;3.27;2.13;;;;;;;9.95;100.00;92750.50;6215051;23;20177;-84
2023/03/11 02:03:58;;;;;;;2.33;2.00;;;;;;;9.99;100.00;92741.94;6214428;23;20166;-84
2023/03/11 02:06:26;;;;;;;2.70;2.00;;;;;;;9.99;100.00;92754.91;6215697;23;20190;-84
2023/03/11 02:08:52;;;;;;;2.90;2.07;;;;;;;10.00;100.00;92758.28;6215669;23;20165;-84
2023/03/11 02:11:23;;;;;;;4.83;2.17;;;;;;;9.88;100.00;92774.13;6215128;23;20171;-84
2023/03/11 02:13:54;;;;;;;2.70;2.10;;;;;;;9.74;100.00;92756.72;6215179;23;20154;-85
2023/03/11 02:16:21;;;;;;;2.30;2.10;;;;;;;9.78;100.00;92765.56;6215293;23;20163;-84
2023/03/11 02:18:48;;;;;;;3.30;2.27;;;;;;;9.66;100.00;92776.19;6214715;23;20193;-86
2023/03/11 02:21:25;;;;;;;5.47;2.40;;;;;;;9.77;100.00;92782.94;6214533;23;20171;-84
2023/03/11 02:23:59;;;;;;;2.30;2.10;;;;;;;9.75;100.00;92784.22;6217530;23;20209;-84
2023/03/11 02:26:34;;;;;;;3.53;1.97;;;;;;;9.64;100.00;92779.03;6214512;23;20684;-84
2023/03/11 02:29:11;;;;;;;5.60;1.90;;;;;;;9.76;100.00;92809.13;6214224;23;20164;-85
2023/03/11 02:31:40;;;;;;;4.07;2.17;;;;;;;9.75;100.00;92794.59;6214383;23;20625;-85
2023/03/11 02:34:11;;;;;;;3.07;1.80;;;;;;;9.77;100.00;92800.31;6214460;23;20162;-86
2023/03/11 02:36:40;;;;;;;3.27;2.30;;;;;;;9.75;100.00;92805.75;6215708;23;20150;-85
2023/03/11 02:39:07;;;;;;;2.57;1.60;;;;;;;9.68;100.00;92800.03;6214174;23;20634;-85
2023/03/11 02:41:37;;;;;;;1.63;1.53;;;;;;;9.56;100.00;92784.72;6214514;23;20173;-85
2023/03/11 02:44:06;;;;;;;4.00;2.00;;;;;;;9.71;100.00;92791.75;6214474;23;20633;-85
2023/03/11 02:46:36;;;;;;;3.20;1.90;;;;;;;9.70;100.00;92785.00;6213962;23;20196;-85
2023/03/11 02:49:04;;;;;;;6.17;1.70;;;;;;;9.87;100.00;92788.09;6213486;23;20170;-84
2023/03/11 02:51:31;;;;;;;1.90;1.40;;;;;;;10.09;100.00;92795.66;6214438;23;20166;-85
2023/03/11 02:54:03;;;;;;;1.67;1.50;;;;;;;10.24;100.00;92793.06;6215313;23;20438;-85
2023/03/11 02:56:30;;;;;;;1.43;1.33;;;;;;;10.40;100.00;92791.22;6214084;23;20491;-85
2023/03/11 02:58:57;;;;;;;2.40;1.40;;;;;;;10.56;100.00;92793.53;6213284;23;20965;-85
2023/03/11 03:01:23;;;;;;;2.27;1.47;;;;;;;10.55;100.00;92794.59;6211958;23;20181;-85
2023/03/11 03:03:52;;;;;;;4.07;1.63;;;;;;;10.60;100.00;92801.56;6212947;23;20176;-85
2023/03/11 03:06:18;;;;;;;1.50;1.40;;;;;;;10.50;100.00;92786.03;6213929;23;20198;-84
2023/03/11 03:08:45;;;;;;;1.40;1.30;;;;;;;10.62;100.00;92797.66;6213710;23;20170;-84
2023/03/11 03:11:12;;;;;;;3.80;1.30;;;;;;;10.67;100.00;92799.50;6214897;23;20173;-84
2023/03/11 03:13:39;;;;;;;3.57;1.40;;;;;;;10.60;100.00;92780.78;6214329;23;20201;-84
2023/03/11 03:16:06;;;;;;;1.40;1.30;;;;;;;10.67;100.00;92791.69;6213988;23;20521;-84
2023/03/11 03:18:33;;;;;;;1.73;1.57;;;;;;;10.75;100.00;92801.53;6215963;23;20203;-85
2023/03/11 03:21:01;;;;;;;2.20;1.40;;;;;;;10.71;100.00;92803.88;6215358;23;20225;-86
2023/03/11 03:23:28;;;;;;;2.70;1.30;;;;;;;10.75;100.00;92809.34;6214131;23;20641;-83
2023/03/11 03:25:55;;;;;;;1.40;1.30;;;;;;;10.79;100.00;92805.19;6216047;23;20641;-84
2023/03/11 03:28:22;;;;;;;1.77;1.50;;;;;;;10.80;100.00;92799.69;6214356;23;20236;-85
2023/03/11 03:30:48;;;;;;;1.13;1.10;;;;;;;10.82;100.00;92800.22;6214206;23;20198;-86
2023/03/11 03:33:15;;;;;;;1.10;1.10;;;;;;;10.83;100.00;92798.38;6214904;23;20174;-87
2023/03/11 03:35:44;;;;;;;2.40;1.30;;;;;;;10.86;100.00;92810.84;6214898;23;20233;-84
2023/03/11 03:38:12;;;;;;;1.47;1.20;;;;;;;10.90;100.00;92811.91;6215055;23;20162;-85
2023/03/11 03:40:39;;;;;;;1.03;1.00;;;;;;;10.92;100.00;92809.00;6226811;23;20181;-84
2023/03/11 03:43:06;;;;;;;2.07;1.30;;;;;;;10.96;100.00;92799.66;6215893;23;20174;-81
2023/03/11 03:45:33;;;;;;;1.80;1.10;;;;;;;10.96;100.00;92792.66;6212837;23;20170;-81
2023/03/11 03:48:00;;;;;;;1.00;1.00;;;;;;;11.02;100.00;92807.19;6213383;23;20194;-81
2023/03/11 03:50:26;;;;;;;1.00;1.00;;;;;;;11.09;99.83;92799.06;6211870;23;20185;-80
2023/03/11 03:52:53;;;;;;;1.00;1.00;;;;;;;11.10;97.27;92796.22;6212655;23;20177;-81
2023/03/11 03:55:21;;;;;;;1.23;1.00;;;;;;;11.07;96.22;92777.78;6213699;23;20174;-81
2023/03/11 03:57:48;;;;;;;1.10;1.00;;;;;;;11.24;94.92;92802.41;6213990;23;20206;-81
2023/03/11 04:00:16;;;;;;;2.23;1.00;;;;;;;11.21;95.32;92787.34;6212883;23;20171;-80
2023/03/11 04:02:43;;;;;;;2.00;1.30;;;;;;;11.20;96.35;92784.97;6213409;23;20173;-81
2023/03/11 04:05:10;;;;;;;2.27;1.57;;;;;;;11.17;96.25;92786.31;6212816;23;20163;-79
2023/03/11 04:07:37;;;;;;;2.30;1.70;;;;;;;11.20;97.74;92788.38;6213034;23;20673;-84
2023/03/11 04:10:05;;;;;;;1.67;1.30;;;;;;;11.20;98.03;92788.38;6213333;23;20162;-84
2023/03/11 04:12:33;;;;;;;2.33;1.47;;;;;;;11.19;97.00;92788.66;6213129;23;20170;-85
2023/03/11 04:15:00;;;;;;;4.70;1.50;;;;;;;11.17;97.63;92796.69;6212385;23;20181;-84
2023/03/11 04:17:26;;;;;;;1.90;1.50;;;;;;;11.14;98.46;92793.88;6214097;23;20868;-84
2023/03/11 04:19:53;;;;;;;3.60;1.90;;;;;;;11.16;98.78;92797.75;6210913;23;20476;-83
2023/03/11 04:22:20;;;;;;;2.20;1.70;;;;;;;11.13;98.24;92798.28;6211678;23;20181;-85
2023/03/11 04:24:47;;;;;;;1.40;1.30;;;;;;;11.13;98.24;92800.88;6212645;23;20177;-85
2023/03/11 04:27:14;;;;;;;1.30;1.20;;;;;;;11.15;97.43;92806.59;6212724;23;20514;-84
2023/03/11 04:29:42;;;;;;;2.20;1.37;;;;;;;11.16;97.06;92800.34;6186053;23;20520;-85
2023/03/11 04:32:09;;;;;;;1.20;1.10;;;;;;;11.20;95.85;92801.38;6212694;23;20174;-84
2023/03/11 04:34:36;;;;;;;1.30;1.20;;;;;;;11.15;96.59;92801.41;6216927;23;20166;-84
2023/03/11 04:37:02;;;;;;;1.80;1.10;;;;;;;11.13;96.13;92800.88;6213149;23;20162;-84
2023/03/11 04:39:29;;;;;;;2.43;1.20;;;;;;;11.12;95.54;92803.75;6212629;23;20826;-86
2023/03/11 04:41:57;;;;;;;1.30;1.20;;;;;;;11.04;95.08;92778.31;6212565;23;20178;-86
2023/03/11 04:44:24;;;;;;;2.07;1.70;;;;;;;11.19;95.35;92799.84;6212558;23;20241;-84
2023/03/11 04:46:52;;;;;;;1.60;1.50;;;;;;;11.21;95.43;92799.53;6212840;23;20260;-83
2023/03/11 04:49:18;;;;;;;1.30;1.20;;;;;;;11.17;95.31;92807.09;6211955;23;20166;-85
2023/03/11 04:51:45;;;;;;;3.07;1.47;;;;;;;11.17;95.56;92807.09;6212324;23;20195;-86
2023/03/11 04:54:12;;;;;;;2.00;1.50;;;;;;;11.20;95.94;92810.97;6212501;23;20167;-87
2023/03/11 04:56:39;;;;;;;1.43;1.33;;;;;;;11.17;95.55;92817.50;6212608;23;20177;-86
2023/03/11 04:59:06;;;;;;;1.10;1.10;;;;;;;11.20;95.49;92813.59;6212380;23;20796;-86
2023/03/11 05:01:35;;;;;;;1.87;1.30;;;;;;;10.97;96.27;92801.19;6214494;23;20171;-85
2023/03/11 05:04:03;;;;;;;1.13;1.10;;;;;;;11.12;95.16;92820.13;6213967;23;20173;-88
2023/03/11 05:06:30;;;;;;;1.20;1.10;;;;;;;11.09;94.47;92810.25;6211984;23;20201;-86
2023/03/11 05:08:57;;;;;;;0.90;0.90;;;;;;;11.15;94.89;92830.00;6212219;23;20261;-86
2023/03/11 05:11:24;;;;;;;1.20;1.10;;;;;;;11.17;94.19;92825.28;6212328;23;20188;-87
2023/03/11 05:13:51;;;;;;;1.40;1.00;;;;;;;11.07;94.32;92816.78;6212586;23;20188;-87
2023/03/11 05:16:18;;;;;;;1.40;1.30;;;;;;;11.20;94.41;92847.38;6212482;23;20170;-87
2023/03/11 05:18:45;;;;;;;2.43;1.97;;;;;;;11.18;95.18;92852.84;6215114;23;20177;-87
2023/03/11 05:21:13;;;;;;;1.97;1.60;;;;;;;11.21;94.79;92852.31;6212629;23;20699;-81
2023/03/11 05:23:40;;;;;;;3.20;1.90;;;;;;;11.23;95.08;92846.84;6211980;23;20169;-82
2023/03/11 05:26:07;;;;;;;1.70;1.60;;;;;;;11.22;94.34;92860.91;6212192;23;20173;-81
2023/03/11 05:28:34;;;;;;;3.07;1.50;;;;;;;11.15;94.32;92876.00;6212137;23;20669;-82
2023/03/11 05:31:01;;;;;;;1.37;1.27;;;;;;;11.22;94.10;92866.91;6212527;23;20237;-81
2023/03/11 05:33:31;;;;;;;1.93;1.57;;;;;;;11.22;94.82;92871.31;6211893;23;20170;-87
2023/03/11 05:36:04;;;;;;;2.60;1.80;;;;;;;11.14;94.92;92864.81;6210537;23;20224;-84
2023/03/11 05:38:32;;;;;;;2.20;1.93;;;;;;;11.22;95.08;92877.28;6212900;23;20165;-83
2023/03/11 05:40:59;;;;;;;3.90;2.60;;;;;;;11.21;95.39;92865.31;6211679;23;20291;-83
2023/03/11 05:43:26;;;;;;;2.43;1.70;;;;;;;11.16;95.14;92872.38;6211495;23;20528;-83
2023/03/11 05:45:53;;;;;;;1.70;1.50;;;;;;;11.00;95.66;92868.25;6212155;23;20174;-81
2023/03/11 05:48:20;;;;;;;2.97;1.83;;;;;;;11.12;95.35;92864.31;6211977;23;20695;-80
2023/03/11 05:50:46;;;;;;;2.30;1.70;;;;;;;11.12;96.29;92874.72;6211912;23;20688;-81
2023/03/11 05:53:16;;;;;;;1.87;1.67;;;;;;;11.13;96.87;92878.88;6214359;23;20169;-82
2023/03/11 05:55:44;;;;;;;2.33;1.97;;;;;;;11.13;97.04;92881.47;6213242;23;20217;-81
2023/03/11 05:58:11;;;;;;;4.30;2.30;;;;;;;11.08;97.14;92881.47;6212007;23;20198;-80
2023/03/11 06:00:38;;;;;;;3.40;2.57;;;;;;;11.11;97.55;92895.78;6212356;23;20170;-81
2023/03/11 06:03:05;;;;;;;4.30;2.97;;;;;;;11.12;98.62;92899.94;6211550;23;20162;-84
2023/03/11 06:05:32;;;;;;;6.50;3.20;;;;;;;11.08;99.74;92902.25;6211105;23;20178;-83
2023/03/11 06:07:58;;;;;;;7.23;3.80;;;;;;;11.01;99.99;92906.19;6212447;23;20272;-84
2023/03/11 06:10:27;;;;;;;5.10;3.67;;;;;;;10.96;99.47;92903.59;6212179;23;20166;-84
2023/03/11 06:12:55;;;;;;;4.23;2.90;;;;;;;10.94;99.41;92898.66;6212733;23;20198;-80
2023/03/11 06:15:22;;;;;;;9.80;6.33;;;;;;;10.98;100.00;92909.31;6212624;23;20265;-80
2023/03/11 06:17:48;;;;;;;7.93;5.00;;;;;;;10.89;100.00;92914.28;6211236;23;20190;-79
2023/03/11 06:20:15;;;;;;;8.63;5.17;;;;;;;10.93;100.00;92923.13;6211739;23;20166;-80
2023/03/11 06:22:42;;;;;;;10.17;5.67;;;;;;;11.02;100.00;92918.94;6211889;23;20511;-80
2023/03/11 06:25:11;;;;;;;8.83;4.47;;;;;;;10.88;100.00;92912.69;6211222;23;20524;-79
2023/03/11 06:27:38;;;;;;;6.27;4.20;;;;;;;10.58;100.00;92905.72;6211675;23;20194;-81
2023/03/11 06:30:09;;;;;;;7.20;3.80;;;;;;;10.49;100.00;92898.72;6213764;23;20476;-79
2023/03/11 06:32:36;;;;;;;9.37;5.30;;;;;;;10.43;100.00;92904.94;6212848;23;20154;-84
2023/03/11 06:35:03;;;;;;;6.60;4.57;;;;;;;10.42;100.00;92919.75;6213310;23;20167;-84
2023/03/11 06:37:30;;;;;;;6.07;3.47;;;;;;;10.45;100.00;92918.44;6217043;23;20656;-85
2023/03/11 06:39:56;;;;;;;6.10;3.40;;;;;;;10.48;100.00;92921.31;6213082;23;20170;-85
2023/03/11 06:42:23;;;;;;;4.40;3.30;;;;;;;10.33;100.00;92921.31;6212224;23;20654;-86
2023/03/11 06:44:50;;;;;;;7.67;4.20;;;;;;;10.22;100.00;92919.72;6216760;23;20216;-86
2023/03/11 06:47:21;;;;;;;8.07;4.93;;;;;;;10.36;100.00;92928.56;6213861;23;20668;-79
2023/03/11 06:49:49;;;;;;;7.10;5.13;;;;;;;10.47;100.00;92922.38;6214012;23;20170;-80
2023/03/11 06:52:16;;;;;;;7.63;5.10;;;;;;;10.45;100.00;92901.06;6213417;23;20170;-80
2023/03/11 06:54:43;;;;;;;8.57;5.33;;;;;;;10.58;100.00;92905.72;6211690;23;20173;-81
2023/03/11 06:57:10;;;;;;;10.43;5.90;;;;;;;10.58;100.00;92917.94;6211530;23;20516;-81
2023/03/11 06:59:43;;;;;;;11.43;6.20;;;;;;;10.59;100.00;92922.84;6213382;23;20155;-80
2023/03/11 07:02:16;;;;;;;7.17;4.13;;;;;;;10.55;100.00;92916.66;6213359;23;20155;-80
2023/03/11 07:04:44;;;;;;;7.47;4.37;;;;;;;10.60;100.00;92919.22;6212915;23;20621;-79
2023/03/11 07:07:11;;;;;;;6.80;4.43;;;;;;;10.79;100.00;92929.88;6212775;23;20194;-81
2023/03/11 07:09:38;;;;;;;13.00;8.23;;;;;;;10.75;100.00;92928.84;6213436;23;20170;-79
2023/03/11 07:12:05;;;;;;;9.60;6.23;;;;;;;10.81;100.00;92922.59;6213123;23;20170;-81
2023/03/11 07:14:32;;;;;;;9.37;5.33;;;;;;;10.79;100.00;92922.09;6212724;23;20170;-77
2023/03/11 07:16:58;;;;;;;13.37;7.17;;;;;;;10.90;100.00;92918.44;6211769;23;20178;-77
2023/03/11 07:19:25;;;;;;;7.30;5.40;;;;;;;10.88;100.00;92917.16;6211350;23;20171;-78
2023/03/11 07:21:53;;;;;;;8.80;5.90;;;;;;;10.89;100.00;92914.28;6211021;23;20224;-77
2023/03/11 07:24:20;;;;;;;7.97;4.63;;;;;;;10.95;100.00;92921.03;6212230;23;20170;-78
2023/03/11 07:26:47;;;;;;;9.63;5.97;;;;;;;11.05;100.00;92918.41;6212022;23;20170;-77
2023/03/11 07:29:14;;;;;;;13.60;8.07;;;;;;;11.05;100.00;92920.22;6211361;23;20193;-78
2023/03/11 07:31:41;;;;;;;15.27;8.57;;;;;;;11.05;100.00;92909.84;6211553;23;20167;-80
2023/03/11 07:34:13;;;;;;;12.00;5.83;;;;;;;11.01;100.00;92903.59;6211153;23;20225;-79
2023/03/11 07:36:41;;;;;;;9.07;4.90;;;;;;;11.13;100.00;92898.91;6211377;23;20159;-80
2023/03/11 07:39:14;;;;;;;7.87;4.27;;;;;;;11.22;100.00;92894.72;6211027;23;20166;-79
2023/03/11 07:41:58;;;;;;;10.13;4.90;;;;;;;11.24;100.00;92890.00;6209714;23;20158;-77
2023/03/11 07:44:25;;;;;;;17.47;10.53;;;;;;;11.46;97.59;92884.50;6209653;23;20173;-79
2023/03/11 07:46:52;;;;;;;16.83;11.53;;;;;;;11.55;96.53;92882.88;6210714;23;20174;-78
2023/03/11 07:49:19;;;;;;;18.13;8.43;;;;;;;11.38;97.79;92873.59;6211361;23;20266;-77
2023/03/11 07:51:46;;;;;;;5.77;4.40;;;;;;;11.34;98.27;92864.75;6211673;23;20622;-78
2023/03/11 07:54:14;;;;;;;2.53;2.10;;;;;;;11.51;94.51;92869.63;6215322;23;20178;-77
2023/03/11 07:56:41;;;;;;;3.70;2.30;;;;;;;11.48;94.69;92862.38;6222826;23;20170;-78
2023/03/11 07:59:08;;;;;;;3.67;2.57;;;;;;;11.52;94.92;92854.78;6223694;23;20197;-77
2023/03/11 08:01:39;;;;;;;4.07;2.83;;;;;;;11.51;94.34;92851.44;6222497;23;20651;-77
2023/03/11 08:04:08;;;;;;;3.20;2.10;;;;;;;11.39;92.39;92837.97;6223264;23;20158;-77
2023/03/11 08:06:36;;;;;;;5.10;2.10;;;;;;;11.56;90.34;92848.78;6217178;23;20229;-78
2023/03/11 08:09:05;;;;;;;4.00;2.80;;;;;;;11.63;91.02;92854.47;6212773;23;20592;-85
2023/03/11 08:11:36;;;;;;;3.47;2.80;;;;;;;11.76;89.57;92843.50;6220199;23;20280;-83
2023/03/11 08:14:03;;;;;;;5.10;2.07;;;;;;;11.90;89.32;92838.47;6223319;23;20165;-83
2023/03/11 08:16:30;;;;;;;4.17;2.60;;;;;;;11.88;90.42;92843.19;6222767;23;20237;-82
2023/03/11 08:18:57;;;;;;;3.77;2.10;;;;;;;11.91;87.21;92814.00;6219941;23;20209;-84
2023/03/11 08:21:27;;;;;;;2.93;2.30;;;;;;;12.05;88.13;92819.38;6218604;23;20198;-85
2023/03/11 08:23:57;;;;;;;3.43;2.37;;;;;;;12.12;87.75;92820.59;6213936;23;20648;-85
2023/03/11 08:26:25;;;;;;;3.80;3.00;;;;;;;12.23;87.80;92805.69;6213828;23;20162;-86
2023/03/11 08:28:55;;;;;;;6.67;3.47;;;;;;;12.45;87.30;92819.03;6213778;23;20541;-85
2023/03/11 08:31:24;;;;;;;3.67;1.80;;;;;;;12.42;84.20;92793.53;6214197;23;20174;-86
2023/03/11 08:33:53;;;;;;;4.43;2.37;;;;;;;12.24;85.78;92776.75;6212894;23;20522;-85
2023/03/11 08:36:20;;;;;;;4.70;2.60;;;;;;;12.56;84.80;92817.91;6213826;23;20170;-86
2023/03/11 08:38:47;;;;;;;3.80;2.20;;;;;;;12.61;83.50;92804.06;6212765;23;20173;-86
2023/03/11 08:41:15;;;;;;;8.67;2.70;;;;;;;12.60;83.91;92784.25;6213607;23;20625;-88
2023/03/11 08:43:43;;;;;;;3.97;2.80;;;;;;;12.82;83.26;92795.75;6213673;23;20257;-85
2023/03/11 08:46:17;;;;;;;3.53;2.40;;;;;;;12.89;80.89;92800.63;6215314;23;20561;-88
2023/03/11 08:48:44;;;;;;;3.93;2.27;;;;;;;12.96;81.80;92788.81;6213110;23;20169;-86
2023/03/11 08:51:12;;;;;;;3.43;2.20;;;;;;;13.09;79.96;92790.00;6212941;23;20563;-85
2023/03/11 08:53:39;;;;;;;4.63;2.50;;;;;;;13.20;80.28;92781.00;6213984;23;20173;-85
2023/03/11 08:56:07;;;;;;;3.90;2.60;;;;;;;13.30;78.64;92780.09;6212690;23;20162;-85
2023/03/11 08:58:34;;;;;;;4.03;2.90;;;;;;;13.47;79.70;92783.78;6212717;23;20504;-82
2023/03/11 09:01:00;;;;;;;5.97;2.60;;;;;;;13.66;78.55;92783.78;6212220;23;20200;-85
2023/03/11 09:03:31;;;;;;;4.77;2.70;;;;;;;13.59;78.71;92776.28;6212342;23;20174;-84
2023/03/11 09:05:59;;;;;;;2.67;2.13;;;;;;;13.74;77.63;92798.81;6212427;23;20181;-83
2023/03/11 09:08:26;;;;;;;7.60;2.40;;;;;;;13.92;77.22;92784.19;6214863;23;20194;-84
2023/03/11 09:10:53;;;;;;;3.93;2.33;;;;;;;14.08;77.08;92780.31;6212119;23;20621;-83
2023/03/11 09:13:20;;;;;;;3.23;1.80;;;;;;;14.34;76.72;92794.56;6212567;23;20182;-83
2023/03/11 09:15:47;;;;;;;3.73;2.00;;;;;;;14.54;77.14;92783.75;6212409;23;20193;-85
2023/03/11 09:18:16;;;;;;;2.97;1.80;;;;;;;14.44;75.81;92765.63;6212411;23;20226;-84
2023/03/11 09:20:45;;;;;;;2.20;2.00;;;;;;;14.57;75.19;92761.47;6212465;23;20166;-84
2023/03/11 09:23:14;;;;;;;3.53;1.90;;;;;;;14.56;74.34;92781.63;6212416;23;20166;-85
2023/03/11 09:25:41;;;;;;;2.90;1.90;;;;;;;14.59;74.30;92783.66;6213795;23;20174;-83
2023/03/11 09:28:08;;;;;;;2.03;1.50;;;;;;;14.64;73.06;92770.50;6212845;23;20584;-83
2023/03/11 09:30:39;;;;;;;4.20;1.83;;;;;;;15.00;74.02;92770.63;6212178;23;20241;-84
2023/03/11 09:33:06;;;;;;;2.00;1.73;;;;;;;15.08;73.74;92763.91;6211140;23;20509;-83
2023/03/11 09:35:33;;;;;;;3.23;2.03;;;;;;;15.22;72.90;92764.69;6213670;23;20652;-83
2023/03/11 09:38:01;;;;;;;3.70;2.00;;;;;;;15.26;72.78;92758.59;6213609;23;20220;-85
2023/03/11 09:40:39;;;;;;;2.20;1.80;;;;;;;15.33;74.08;92756.31;6211769;23;20170;-80
2023/03/11 09:43:16;;;;;;;3.47;2.20;;;;;;;15.67;70.73;92779.47;6211607;23;20154;-78
2023/03/11 09:45:51;;;;;;;5.00;1.70;;;;;;;15.79;70.34;92784.97;6213098;23;20177;-81
2023/03/11 09:48:29;;;;;;;2.97;1.60;;;;;;;15.89;70.60;92760.38;6211943;23;20218;-82
2023/03/11 09:51:00;;;;;;;4.13;2.10;;;;;;;15.99;71.03;92746.28;6211725;23;20255;-82
2023/03/11 09:53:38;;;;;;;1.80;1.30;;;;;;;16.01;70.93;92744.91;6212216;23;20617;-84
2023/03/11 09:56:08;;;;;;;3.20;2.00;;;;;;;16.30;67.19;92758.38;6216306;23;20676;-83
2023/03/11 09:58:39;;;;;;;3.43;2.10;;;;;;;16.47;65.77;92768.19;6212137;23;20190;-78
2023/03/11 10:01:15;;;;;;;4.97;2.00;;;;;;;16.76;64.40;92771.16;6211536;23;20618;-78
2023/03/11 10:03:43;;;;;;;3.77;1.50;;;;;;;16.92;61.70;92764.41;6210643;23;20178;-78
2023/03/11 10:06:16;;;;;;;2.97;1.93;;;;;;;16.96;62.07;92749.63;6211052;23;20177;-77
2023/03/11 10:08:48;;;;;;;2.77;1.97;;;;;;;16.94;60.06;92772.75;6210405;23;20178;-79
2023/03/11 10:11:32;;;;;;;2.20;1.80;;;;;;;16.87;60.87;92790.00;6209896;23;20162;-78
2023/03/11 10:14:09;;;;;;;6.00;2.43;;;;;;;16.44;63.26;92782.66;6211060;23;20735;-78
2023/03/11 10:16:47;;;;;;;2.87;2.00;;;;;;;15.92;64.45;92766.88;6211298;23;20186;-77
2023/03/11 10:19:24;;;;;;;3.47;1.93;;;;;;;15.54;66.14;92779.50;6212733;23;20154;-78
2023/03/11 10:22:02;;;;;;;4.37;1.77;;;;;;;15.25;67.14;92770.09;6212461;23;20265;-78
2023/03/11 10:24:57;;;;;;;1.87;1.60;;;;;;;15.07;68.65;92772.81;6212394;23;20158;-78
2023/03/11 10:27:29;;;;;;;4.30;2.10;;;;;;;15.08;69.76;92764.69;6213296;23;20186;-78
2023/03/11 10:30:02;;;;;;;4.47;2.90;;;;;;;15.20;70.76;92775.44;6212187;23;20202;-78
2023/03/11 10:32:38;;;;;;;2.10;1.80;;;;;;;15.00;71.28;92769.84;6212187;23;20165;-78
2023/03/11 10:35:15;;;;;;;4.73;2.20;;;;;;;14.83;70.40;92767.03;6214204;23;20165;-78
2023/03/11 10:37:48;;;;;;;2.90;1.80;;;;;;;14.68;69.00;92768.06;6213908;23;20448;-82
2023/03/11 10:40:26;;;;;;;2.77;2.00;;;;;;;14.57;69.53;92772.69;6214073;23;20150;-82
2023/03/11 10:42:55;;;;;;;7.37;2.87;;;;;;;14.43;71.71;92760.69;6216343;23;20146;-85
2023/03/11 10:45:23;;;;;;;6.00;2.97;;;;;;;14.41;70.81;92775.88;6214755;23;20548;-84
2023/03/11 10:47:50;;;;;;;9.23;3.40;;;;;;;14.33;71.35;92771.31;6215046;23;20201;-83
2023/03/11 10:50:23;;;;;;;4.13;2.70;;;;;;;14.09;72.71;92777.41;6213974;23;20217;-85
2023/03/11 10:53:08;;;;;;;3.27;1.97;;;;;;;13.78;74.90;92778.91;6213817;23;20190;-84
2023/03/11 10:55:48;;;;;;;2.63;2.20;;;;;;;13.70;77.00;92776.16;6214125;23;20525;-79
2023/03/11 10:58:17;;;;;;;3.83;2.10;;;;;;;13.72;74.84;92779.25;6212873;23;20288;-80
2023/03/11 11:00:44;;;;;;;4.90;2.60;;;;;;;13.87;74.18;92784.28;6211176;23;20180;-78
2023/03/11 11:03:23;;;;;;;4.60;3.00;;;;;;;13.88;73.99;92780.63;6210551;23;20165;-79
2023/03/11 11:06:02;;;;;;;5.83;2.60;;;;;;;14.06;76.87;92779.78;6211823;23;20172;-88
2023/03/11 11:08:36;;;;;;;3.47;2.20;;;;;;;14.65;78.42;92779.13;6214139;23;20640;-85
2023/03/11 11:11:19;;;;;;;5.00;1.80;;;;;;;15.18;71.71;92777.56;6213905;23;20496;-80
2023/03/11 11:13:56;;;;;;;3.17;1.83;;;;;;;15.77;70.68;92779.25;6212288;23;20154;-80
2023/03/11 11:16:25;;;;;;;3.40;2.50;;;;;;;16.30;69.49;92774.09;6211500;23;20165;-79
2023/03/11 11:19:10;;;;;;;2.17;1.57;;;;;;;16.29;68.75;92759.44;6212001;23;20170;-79
2023/03/11 11:21:41;;;;;;;3.97;2.00;;;;;;;16.31;68.21;92759.91;6211428;23;20159;-79
2023/03/11 11:24:20;;;;;;;4.30;2.03;;;;;;;16.25;68.72;92761.09;6211290;23;20170;-79
2023/03/11 11:27:17;;;;;;;3.70;2.87;;;;;;;15.72;69.51;92747.94;6211664;23;20220;-79
2023/03/11 11:30:13;;;;;;;3.40;2.50;;;;;;;15.58;69.60;92768.16;6212118;23;20257;-78
2023/03/11 11:32:41;;;;;;;3.87;2.50;;;;;;;15.47;67.69;92750.34;6214085;23;20154;-79
2023/03/11 11:35:12;;;;;;;6.20;2.57;;;;;;;15.33;67.37;92748.47;6213328;23;20166;-79
2023/03/11 11:37:42;;;;;;;6.67;2.70;;;;;;;15.19;67.85;92739.09;6212719;23;20158;-78
2023/03/11 11:40:30;;;;;;;7.13;3.20;;;;;;;14.99;68.59;92727.19;6212417;23;20154;-79